Flight Track Log - Related Links

Times and Time Zones

All times are in EDT time to prevent confusion due to time zone crossing. See the SWA969 flight status page for this flight to view local times or setup timezone preferences in your user account.

Time Position Orientation Groundspeed Altitude Reporting Facility
EDT Latitude Longitude Course Direction KTS MPH feet Rate Location/Type
Tue 07:24:09 AM 32.0183 -102.0686 85° East 251 289 10,400  Level Fort Worth Center
Tue 07:27:09 AM 32.0436 -101.7119 87° East 375 432 20,300 3,400 Climbing Fort Worth Center
Tue 07:28:09 AM 32.0503 -101.5775 87° East 396 456 24,000 3,250 Climbing Fort Worth Center
Tue 07:29:09 AM 32.0569 -101.4406 87° East 402 463 26,800 2,750 Climbing Fort Worth Center
Tue 07:30:09 AM 32.0633 -101.3036 88° East 414 476 29,500 2,550 Climbing Fort Worth Center
Tue 07:31:09 AM 32.0675 -101.1617 86° East 419 482 31,900 1,750 Climbing Fort Worth Center
Tue 07:32:09 AM 32.0758 -101.0197 89° East 425 489 33,000 550 Climbing Fort Worth Center
Tue 07:33:09 AM 32.0778 -100.8753 87° East 430 495 33,000  Level Fort Worth Center
Tue 07:34:09 AM 32.0839 -100.7283 88° East 435 501 33,000  Level Fort Worth Center
Tue 07:35:09 AM 32.0875 -100.5864 87° East 440 506 33,000  Level Fort Worth Center
Tue 07:36:09 AM 32.0933 -100.4394 88° East 440 506 33,000  Level Fort Worth Center
Tue 07:37:09 AM 32.0967 -100.2947 87° East 440 506 33,000  Level Fort Worth Center
Tue 07:38:09 AM 32.1022 -100.1478 88° East 440 506 33,000  Level Fort Worth Center
Tue 07:39:09 AM 32.1072 -100.0033 89° East 440 506 33,000  Level Fort Worth Center
Tue 07:40:09 AM 32.1100 -99.8586 88° East 440 506 33,000  Level Fort Worth Center
Tue 07:41:09 AM 32.1150 -99.7142 87° East 440 506 33,000  Level Fort Worth Center
Tue 07:42:09 AM 32.1217 -99.5647 89° East 440 506 33,000  Level Fort Worth Center
Tue 07:43:09 AM 32.1242 -99.4200 84° East 440 506 33,000  Level Fort Worth Center
Tue 07:44:09 AM 32.1369 -99.2756 84° East 440 506 33,000  Level Fort Worth Center
Tue 07:45:09 AM 32.1494 -99.1286 84° East 445 512 33,000  Level Fort Worth Center
Tue 07:46:09 AM 32.1617 -98.9814 84° East 445 512 33,000  Level Fort Worth Center
Tue 07:47:09 AM 32.1739 -98.8344 84° East 445 512 33,000 -650 Level Fort Worth Center
Tue 07:48:09 AM 32.1858 -98.6897 84° East 445 512 31,700 -2,000 Descending Fort Worth Center
Tue 07:49:09 AM 32.2000 -98.5403 85° East 445 512 29,000 -2,550 Descending Fort Worth Center
Tue 07:50:09 AM 32.2114 -98.3981 84° East 440 506 26,600 -2,350 Descending Fort Worth Center
Tue 07:51:09 AM 32.2231 -98.2558 87° East 435 501 24,300 -2,300 Descending Fort Worth Center
Tue 07:52:09 AM 32.2300 -98.1158 84° East 435 501 22,000 -2,350 Descending Fort Worth Center
Tue 07:53:09 AM 32.2433 -97.9661 85° East 418 481 19,600 -2,172 Descending Fort Worth Center
Tue 07:54:05 AM 32.2514 -97.8478 85° East 390 449 17,800 -1,938 Descending FAA TRACON SMA TRACON (SMA)
Tue 07:54:45 AM 32.2567 -97.7719 84° East 375 432 16,500 -2,025 Descending FAA TRACON SMA TRACON (SMA)
Tue 07:55:25 AM 32.2636 -97.6911 76° East 358 412 15,100 -2,025 Descending FAA TRACON SMA TRACON (SMA)
Tue 07:56:05 AM 32.2797 -97.6119 76° East 353 406 13,800 -1,350 Descending FAA TRACON SMA TRACON (SMA)
Tue 07:56:45 AM 32.2950 -97.5389 76° East 337 388 13,300 -900 Descending FAA TRACON SMA TRACON (SMA)
Tue 07:57:25 AM 32.3075 -97.4781 77° East 317 365 12,600 -1,259 Descending FAA TRACON SMA TRACON (SMA)
Tue 07:58:06 AM 32.3206 -97.4114 77° East 300 345 11,600 -1,500 Descending FAA TRACON SMA TRACON (SMA)
Tue 07:58:45 AM 32.3325 -97.3514 76° East 303 349 10,600 -1,443 Descending FAA TRACON SMA TRACON (SMA)
Tue 07:59:25 AM 32.3461 -97.2867 91° East 292 336 9,700 -1,500 Descending FAA TRACON SMA TRACON (SMA)
Tue 08:00:05 AM 32.3447 -97.2228 95° East 294 338 8,600 -1,725 Descending FAA TRACON SMA TRACON (SMA)
Tue 08:00:45 AM 32.3397 -97.1578 91° East 286 329 7,400 -1,350 Descending FAA TRACON SMA TRACON (SMA)
Tue 08:01:25 AM 32.3386 -97.1025 69° East 275 316 6,800 -1,200 Descending FAA TRACON SMA TRACON (SMA)
Tue 08:02:05 AM 32.3581 -97.0422 64° Northeast 283 326 5,800 -1,350 Descending FAA TRACON SMA TRACON (SMA)
Tue 08:02:45 AM 32.3814 -96.9847 60° Northeast 282 325 5,000 -815 Descending FAA TRACON SMA TRACON (SMA)
Tue 08:03:26 AM 32.4047 -96.9361 66° East 269 310 4,700 -741 Descending FAA TRACON SMA TRACON (SMA)
Tue 08:04:06 AM 32.4261 -96.8797 24° Northeast 278 320 4,000 -759 Descending FAA TRACON SMA TRACON (SMA)
Tue 08:04:45 AM 32.4758 -96.8531 27° Northeast 281 323 3,700 -759 Descending FAA TRACON SMA TRACON (SMA)
Tue 08:05:25 AM 32.5197 -96.8269 21° North 271 312 3,000 -525 Descending FAA TRACON SMA TRACON (SMA)
Tue 08:06:05 AM 32.5625 -96.8072 North 271 312 3,000  Level FAA TRACON SMA TRACON (SMA)
Tue 08:06:45 AM 32.6108 -96.8003 North 252 290 3,000  Level FAA TRACON SMA TRACON (SMA)
Tue 08:07:25 AM 32.6517 -96.7947 11° North 236 272 3,000  Level FAA TRACON SMA TRACON (SMA)
Tue 08:08:06 AM 32.6867 -96.7864 North 195 224 3,000  Level FAA TRACON SMA TRACON (SMA)
Tue 08:08:46 AM 32.7267 -96.7817 10° North 191 220 3,000 -380 Level FAA TRACON SMA TRACON (SMA)
Tue 08:09:25 AM 32.7578 -96.7753 348° North 187 215 2,500 -835 Descending FAA TRACON SMA TRACON (SMA)
Tue 08:10:05 AM 32.7908 -96.7839 307° West 190 219 1,900 -900 Descending FAA TRACON SMA TRACON (SMA)
Tue 08:10:45 AM 32.8064 -96.8089 316° Northwest 152 175 1,300 -825 Descending FAA TRACON SMA TRACON (SMA)
Tue 08:11:25 AM 32.8244 -96.8300 316° Northwest 137 158 800 -750 Descending FAA TRACON SMA TRACON (SMA)

Login

Don't have an account? Register now (free) for customized features, flight alerts, and more!